createdAt,value
2018-02-19T00:01:00.248Z,63.60
2018-02-19T00:03:29.355Z,64.57
2018-02-19T00:05:58.443Z,63.63
2018-02-19T00:08:27.531Z,60.80
2018-02-19T00:10:56.645Z,64.73
2018-02-19T00:13:25.726Z,57.90
2018-02-19T00:15:54.843Z,60.37
2018-02-19T00:18:23.932Z,57.93
2018-02-19T00:20:53.708Z,62.90
2018-02-19T00:23:23.587Z,56.97
2018-02-19T00:25:52.699Z,69.77
2018-02-19T00:28:22.547Z,57.17
2018-02-19T00:30:51.666Z,59.20
2018-02-19T00:33:20.759Z,65.70
2018-02-19T00:35:49.880Z,60.57
2018-02-19T00:38:19.753Z,59.23
2018-02-19T00:40:48.878Z,56.23
2018-02-19T00:43:17.985Z,56.67
2018-02-19T00:45:47.090Z,61.23
2018-02-19T00:48:16.984Z,61.70
2018-02-19T00:50:46.087Z,61.20
2018-02-19T00:53:15.190Z,56.03
2018-02-19T00:55:45.059Z,59.53
2018-02-19T00:58:14.277Z,57.40
2018-02-19T01:00:43.386Z,62.77
2018-02-19T01:03:12.487Z,59.17
2018-02-19T01:05:43.989Z,53.70
2018-02-19T01:08:13.092Z,51.77
2018-02-19T01:10:42.198Z,54.43
2018-02-19T01:13:11.292Z,54.87
2018-02-19T01:15:40.402Z,49.67
2018-02-19T01:18:09.519Z,57.73
2018-02-19T01:20:38.602Z,51.60
2018-02-19T01:23:07.709Z,45.10
2018-02-19T01:25:36.800Z,50.97
2018-02-19T01:28:05.944Z,48.40
2018-02-19T01:30:35.028Z,46.93
2018-02-19T01:33:04.205Z,51.57
2018-02-19T01:35:33.300Z,45.00
2018-02-19T01:38:03.165Z,45.90
2018-02-19T01:40:32.270Z,51.67
2018-02-19T01:43:01.587Z,46.47
2018-02-19T01:45:30.680Z,47.77
2018-02-19T01:47:59.770Z,50.50
2018-02-19T01:50:28.858Z,44.73
2018-02-19T01:52:58.758Z,42.57
2018-02-19T01:55:27.831Z,48.47
2018-02-19T01:57:56.948Z,48.50
2018-02-19T02:00:26.052Z,45.10
2018-02-19T02:02:55.158Z,46.00
2018-02-19T02:05:24.240Z,41.90
2018-02-19T02:07:53.373Z,41.43
2018-02-19T02:10:22.457Z,45.63
2018-02-19T02:12:51.565Z,38.20
2018-02-19T02:15:20.665Z,42.00
2018-02-19T02:17:49.798Z,37.00
2018-02-19T02:20:19.638Z,34.40
2018-02-19T02:22:48.734Z,33.80
2018-02-19T02:25:17.828Z,37.03
2018-02-19T02:27:46.925Z,35.13
2018-02-19T02:30:16.031Z,29.53
2018-02-19T02:32:45.114Z,32.83
2018-02-19T02:35:14.240Z,32.50
2018-02-19T02:37:43.333Z,29.07
2018-02-19T02:40:12.454Z,32.63
2018-02-19T02:42:42.303Z,24.10
2018-02-19T02:45:11.475Z,29.83
2018-02-19T02:47:41.339Z,27.40
2018-02-19T02:50:10.432Z,25.30
2018-02-19T02:52:39.538Z,27.47
2018-02-19T02:55:08.662Z,27.43
2018-02-19T02:57:37.747Z,32.33
2018-02-19T03:00:06.857Z,27.50
2018-02-19T03:02:36.740Z,30.00
2018-02-19T03:05:05.845Z,29.00
2018-02-19T03:07:34.920Z,27.67
2018-02-19T03:10:04.029Z,25.43
2018-02-19T03:12:34.321Z,30.00
2018-02-19T03:15:03.437Z,32.27
2018-02-19T03:17:32.523Z,33.63
2018-02-19T03:20:02.346Z,32.73
2018-02-19T03:22:31.450Z,34.53
2018-02-19T03:25:00.550Z,37.63
2018-02-19T03:27:29.658Z,38.63
2018-02-19T03:29:58.752Z,40.40
2018-02-19T03:32:27.861Z,40.87
2018-02-19T03:34:56.947Z,41.30
2018-02-19T03:37:26.093Z,34.77
2018-02-19T03:39:55.940Z,36.27
2018-02-19T03:42:25.029Z,34.57
2018-02-19T03:44:54.144Z,32.07
2018-02-19T03:47:23.231Z,38.57
2018-02-19T03:49:52.338Z,36.23
2018-02-19T03:52:21.418Z,40.53
2018-02-19T03:54:50.556Z,36.47
2018-02-19T03:57:20.914Z,37.67
2018-02-19T03:59:50.028Z,40.23
2018-02-19T04:02:19.110Z,34.70
2018-02-19T04:04:48.214Z,36.83
2018-02-19T04:07:17.308Z,35.80
2018-02-19T04:09:46.407Z,36.17
2018-02-19T04:12:15.497Z,42.27
2018-02-19T04:14:44.623Z,37.40
2018-02-19T04:17:13.722Z,40.77
2018-02-19T04:19:42.842Z,40.40
2018-02-19T04:22:11.934Z,37.37
2018-02-19T04:24:41.801Z,42.60
2018-02-19T04:27:10.911Z,40.20
2018-02-19T04:29:40.018Z,39.57
2018-02-19T04:32:09.145Z,40.47
2018-02-19T04:34:39.014Z,40.33
2018-02-19T04:37:08.130Z,42.57
2018-02-19T04:39:37.236Z,41.17
2018-02-19T04:42:06.338Z,43.53
2018-02-19T04:44:48.030Z,42.07
2018-02-19T04:47:17.902Z,40.90
2018-02-19T04:49:46.985Z,44.70
2018-02-19T04:52:16.107Z,42.13
2018-02-19T04:54:45.197Z,40.87
2018-02-19T04:57:14.312Z,42.20
2018-02-19T04:59:43.435Z,42.80
2018-02-19T05:02:13.305Z,43.13
2018-02-19T05:04:42.417Z,42.90
2018-02-19T05:07:13.040Z,45.73
2018-02-19T05:09:42.145Z,43.80
2018-02-19T05:12:11.229Z,40.63
2018-02-19T05:14:40.348Z,42.90
2018-02-19T05:17:09.439Z,43.27
2018-02-19T05:19:38.547Z,51.10
2018-02-19T05:22:08.403Z,47.53
2018-02-19T05:24:37.536Z,53.20
2018-02-19T05:27:06.624Z,56.00
2018-02-19T05:29:35.732Z,54.63
2018-02-19T05:32:04.824Z,41.30
2018-02-19T05:34:33.948Z,42.53
2018-02-19T05:37:03.802Z,45.60
2018-02-19T05:39:32.920Z,49.47
2018-02-19T05:42:02.018Z,46.17
2018-02-19T05:44:31.118Z,47.70
2018-02-19T05:47:00.243Z,49.80
2018-02-19T05:49:29.334Z,46.63
2018-02-19T05:51:59.218Z,54.30
2018-02-19T05:54:28.326Z,51.83
2018-02-19T05:56:57.436Z,49.47
2018-02-19T05:59:26.550Z,43.90
2018-02-19T06:01:56.450Z,47.43
2018-02-19T06:04:25.877Z,42.87
2018-02-19T06:06:54.987Z,49.10
2018-02-19T06:09:24.071Z,50.90
2018-02-19T06:11:53.189Z,56.57
2018-02-19T06:14:22.276Z,49.20
2018-02-19T06:16:51.393Z,47.77
2018-02-19T06:19:20.483Z,46.33
2018-02-19T06:21:49.594Z,45.40
2018-02-19T06:24:18.716Z,49.57
2018-02-19T06:26:47.826Z,51.87
2018-02-19T06:29:17.701Z,52.60
2018-02-19T06:31:47.139Z,51.10
2018-02-19T06:34:17.015Z,57.93
2018-02-19T06:36:46.132Z,51.80
2018-02-19T06:39:15.241Z,55.33
2018-02-19T06:41:45.102Z,60.23
2018-02-19T06:44:14.214Z,54.87
2018-02-19T06:46:43.360Z,55.83
2018-02-19T06:49:13.250Z,51.73
2018-02-19T06:51:42.355Z,58.03
2018-02-19T06:54:12.060Z,56.13
2018-02-19T06:56:41.158Z,63.37
2018-02-19T06:59:10.257Z,58.70
2018-02-19T07:01:39.358Z,66.87
2018-02-19T07:04:08.468Z,64.03
2018-02-19T07:06:38.338Z,58.23
2018-02-19T07:09:07.447Z,54.67
2018-02-19T07:11:36.576Z,60.03
2018-02-19T07:14:06.430Z,56.67
2018-02-19T07:16:35.532Z,56.07
2018-02-19T07:19:04.642Z,61.73
2018-02-19T07:21:33.752Z,53.20
2018-02-19T07:24:02.874Z,51.70
2018-02-19T07:26:32.743Z,53.03
2018-02-19T07:29:01.849Z,67.50
2018-02-19T07:31:30.954Z,57.43
2018-02-19T07:34:00.095Z,54.90
2018-02-19T07:36:29.198Z,58.40
2018-02-19T07:38:58.320Z,57.57
2018-02-19T07:41:28.211Z,60.30
2018-02-19T07:43:57.306Z,52.97
2018-02-19T07:46:26.397Z,54.33
2018-02-19T07:48:55.560Z,56.57
2018-02-19T07:51:24.668Z,46.90
2018-02-19T07:53:54.533Z,51.93
2018-02-19T07:56:23.657Z,49.67
2018-02-19T07:58:52.736Z,58.97
2018-02-19T08:01:21.867Z,53.80
2018-02-19T08:03:51.713Z,46.77
2018-02-19T08:06:20.846Z,55.43
2018-02-19T08:08:50.791Z,53.47
2018-02-19T08:11:20.674Z,53.23
2018-02-19T08:13:49.757Z,51.43
2018-02-19T08:16:18.906Z,55.10
2018-02-19T08:18:48.762Z,52.47
2018-02-19T08:21:17.858Z,49.93
2018-02-19T08:23:47.005Z,51.10
2018-02-19T08:26:16.090Z,47.77
2018-02-19T08:28:45.973Z,47.47
2018-02-19T08:31:15.073Z,48.00
2018-02-19T08:33:44.209Z,46.43
2018-02-19T08:36:14.078Z,53.13
2018-02-19T08:38:43.173Z,61.57
2018-02-19T08:41:12.289Z,55.60
2018-02-19T08:43:41.428Z,58.43
2018-02-19T08:46:11.328Z,53.17
2018-02-19T08:48:41.183Z,61.97
2018-02-19T08:51:10.298Z,54.43
2018-02-19T08:53:39.635Z,50.87
2018-02-19T08:56:08.750Z,54.17
2018-02-19T08:58:38.564Z,45.53
2018-02-19T09:01:07.668Z,56.43
2018-02-19T09:03:36.782Z,52.80
2018-02-19T09:06:05.889Z,48.80
2018-02-19T09:08:34.970Z,50.50
2018-02-19T09:11:04.070Z,59.97
2018-02-19T09:13:33.185Z,53.17
2018-02-19T09:16:02.308Z,48.80
2018-02-19T09:18:31.406Z,53.00
2018-02-19T09:21:01.294Z,48.07
2018-02-19T09:23:30.385Z,56.70
2018-02-19T09:25:59.799Z,53.97
2018-02-19T09:28:28.894Z,46.77
2018-02-19T09:30:58.837Z,52.17
2018-02-19T09:33:28.710Z,46.80
2018-02-19T09:35:57.890Z,51.80
2018-02-19T09:38:26.990Z,47.93
2018-02-19T09:40:57.157Z,55.70
2018-02-19T09:43:26.245Z,46.87
2018-02-19T09:45:56.298Z,47.87
2018-02-19T09:48:25.443Z,51.50
2018-02-19T09:50:54.769Z,50.73
2018-02-19T09:53:24.663Z,49.53
2018-02-19T09:55:53.756Z,49.13
2018-02-19T09:58:22.907Z,55.40
2018-02-19T10:00:52.009Z,49.83
2018-02-19T10:03:21.114Z,41.13
2018-02-19T10:05:50.246Z,41.87
2018-02-19T10:08:19.352Z,44.60
2018-02-19T10:10:48.467Z,43.83
2018-02-19T10:13:18.330Z,57.27
2018-02-19T10:15:47.462Z,44.33
2018-02-19T10:18:16.559Z,45.67
2018-02-19T10:20:45.670Z,48.30
2018-02-19T10:23:15.546Z,46.80
2018-02-19T10:25:44.647Z,45.03
2018-02-19T10:28:13.741Z,47.50
2018-02-19T10:30:42.878Z,43.50
2018-02-19T10:33:12.770Z,43.43
2018-02-19T10:35:41.866Z,41.07
2018-02-19T10:38:10.966Z,40.93
2018-02-19T10:40:40.095Z,44.10
2018-02-19T10:43:09.191Z,41.30
2018-02-19T10:45:38.319Z,42.50
2018-02-19T10:48:07.433Z,36.27
2018-02-19T10:50:36.553Z,36.20
2018-02-19T10:53:05.645Z,41.80
2018-02-19T10:55:34.744Z,43.60
2018-02-19T10:58:03.856Z,47.40
2018-02-19T11:00:39.215Z,35.30
2018-02-19T11:03:09.083Z,34.80
2018-02-19T11:05:38.215Z,38.87
2018-02-19T11:08:08.060Z,42.07
2018-02-19T11:10:37.175Z,40.73
2018-02-19T11:13:06.286Z,42.33
2018-02-19T11:15:35.388Z,43.33
2018-02-19T11:18:06.021Z,37.80
2018-02-19T11:20:35.113Z,42.47
2018-02-19T11:23:04.241Z,36.87
2018-02-19T11:25:34.101Z,37.93
2018-02-19T11:28:03.244Z,44.23
2018-02-19T11:30:33.115Z,44.67
2018-02-19T11:33:02.216Z,38.10
2018-02-19T11:35:31.314Z,41.40
2018-02-19T11:38:00.437Z,41.53
2018-02-19T11:40:31.127Z,50.23
2018-02-19T11:43:00.202Z,38.80
2018-02-19T11:45:29.298Z,40.70
2018-02-19T11:47:58.437Z,40.00
2018-02-19T11:50:27.554Z,35.60
2018-02-19T11:52:57.432Z,40.73
2018-02-19T11:55:26.550Z,40.57
2018-02-19T11:57:55.681Z,37.67
2018-02-19T12:00:25.550Z,34.10
2018-02-19T12:02:54.652Z,39.33
2018-02-19T12:05:23.743Z,35.30
2018-02-19T12:07:52.973Z,30.87
2018-02-19T12:10:22.067Z,30.27
2018-02-19T12:12:51.195Z,28.97
2018-02-19T12:15:20.279Z,28.93
2018-02-19T12:17:49.406Z,28.63
2018-02-19T12:20:18.479Z,32.70
2018-02-19T12:22:47.593Z,36.33
2018-02-19T12:25:16.705Z,34.73
2018-02-19T12:27:45.829Z,35.50
2018-02-19T12:30:14.935Z,40.37
2018-02-19T12:32:44.061Z,35.97
2018-02-19T12:35:13.906Z,36.97
2018-02-19T12:37:43.029Z,43.87
2018-02-19T12:40:12.124Z,33.17
2018-02-19T12:42:41.260Z,32.17
2018-02-19T12:45:11.176Z,31.33
2018-02-19T12:47:40.254Z,31.60
2018-02-19T12:50:09.358Z,32.37
2018-02-19T12:52:39.226Z,32.50
2018-02-19T12:55:08.359Z,33.17
2018-02-19T12:57:38.235Z,31.60
2018-02-19T13:00:07.368Z,31.50
2018-02-19T13:02:36.479Z,33.33
2018-02-19T13:05:05.617Z,25.43
2018-02-19T13:07:34.703Z,34.53
2018-02-19T13:10:03.825Z,32.20
2018-02-19T13:12:33.698Z,31.17
2018-02-19T13:15:02.850Z,27.67
2018-02-19T13:17:31.911Z,27.67
2018-02-19T13:20:01.038Z,28.00
2018-02-19T13:22:30.135Z,35.10
2018-02-19T13:24:59.259Z,32.83
2018-02-19T13:27:29.113Z,32.43
2018-02-19T13:29:58.245Z,34.00
2018-02-19T13:32:27.340Z,35.57
2018-02-19T13:34:56.453Z,32.80
2018-02-19T13:37:26.328Z,33.83
2018-02-19T13:39:56.188Z,33.40
2018-02-19T13:42:26.695Z,34.90
2018-02-19T13:44:55.794Z,32.90
2018-02-19T13:47:24.942Z,39.67
2018-02-19T13:49:54.790Z,39.47
2018-02-19T13:52:23.940Z,35.33
2018-02-19T13:54:53.021Z,37.93
2018-02-19T13:57:22.909Z,35.17
2018-02-19T13:59:52.001Z,40.50
2018-02-19T14:02:21.152Z,34.63
2018-02-19T14:04:50.243Z,34.53
2018-02-19T14:07:19.358Z,41.67
2018-02-19T14:09:48.509Z,33.73
2018-02-19T14:12:17.609Z,31.87
2018-02-19T14:14:47.476Z,36.30
2018-02-19T14:17:16.595Z,36.57
2018-02-19T14:19:45.674Z,36.13
2018-02-19T14:22:14.793Z,45.73
2018-02-19T14:24:43.919Z,34.07
2018-02-19T14:27:13.768Z,38.03
2018-02-19T14:29:42.901Z,35.97
2018-02-19T14:32:12.010Z,35.37
2018-02-19T14:34:41.878Z,31.30
2018-02-19T14:37:10.995Z,42.13
2018-02-19T14:39:40.121Z,52.53
2018-02-19T14:42:10.003Z,64.73
2018-02-19T14:44:39.892Z,32.50
2018-02-19T14:47:09.006Z,35.93
2018-02-19T14:49:38.118Z,41.47
2018-02-19T14:52:07.255Z,33.87
2018-02-19T14:54:37.120Z,31.63
2018-02-19T14:57:06.254Z,39.23
2018-02-19T14:59:36.142Z,36.87
2018-02-19T15:02:05.252Z,40.43
2018-02-19T15:04:34.364Z,34.30
2018-02-19T15:07:04.229Z,39.17
2018-02-19T15:09:33.361Z,40.23
2018-02-19T15:12:03.248Z,38.37
2018-02-19T15:14:32.383Z,38.83
2018-02-19T15:17:02.234Z,38.23
2018-02-19T15:19:31.346Z,36.00
2018-02-19T15:22:00.470Z,36.23
2018-02-19T15:24:29.638Z,40.07
2018-02-19T15:26:58.686Z,41.77
2018-02-19T15:29:27.804Z,39.47
2018-02-19T15:31:56.916Z,40.97
2018-02-19T15:34:26.049Z,43.87
2018-02-19T15:36:55.153Z,44.13
2018-02-19T15:39:25.063Z,41.47
2018-02-19T15:41:54.973Z,39.60
2018-02-19T15:44:24.087Z,37.93
2018-02-19T15:46:53.974Z,38.97
2018-02-19T15:49:23.120Z,46.73
2018-02-19T15:51:52.291Z,40.93
2018-02-19T15:54:21.403Z,41.30
2018-02-19T15:56:50.592Z,41.27
2018-02-19T15:59:20.485Z,46.23
2018-02-19T16:01:49.628Z,46.60
2018-02-19T16:04:18.734Z,45.03
2018-02-19T16:06:47.888Z,47.10
2018-02-19T16:09:17.008Z,55.07
2018-02-19T16:11:46.903Z,43.50
2018-02-19T16:14:16.837Z,47.23
2018-02-19T16:16:45.934Z,48.80
2018-02-19T16:19:15.030Z,45.53
2018-02-19T16:21:44.163Z,43.63
2018-02-19T16:24:13.283Z,40.87
2018-02-19T16:26:42.433Z,45.43
2018-02-19T16:29:11.527Z,45.23
2018-02-19T16:31:40.615Z,42.13
2018-02-19T16:34:09.744Z,43.57
2018-02-19T16:36:38.833Z,43.00
2018-02-19T16:39:07.959Z,45.97
2018-02-19T16:41:37.069Z,48.20
2018-02-19T16:44:06.190Z,66.40
2018-02-19T16:46:35.287Z,56.43
2018-02-19T16:49:04.482Z,64.10
2018-02-19T16:51:34.325Z,52.07
2018-02-19T16:54:03.462Z,45.97
2018-02-19T16:56:33.374Z,46.27
2018-02-19T16:59:02.486Z,46.53
2018-02-19T17:01:32.369Z,45.50
2018-02-19T17:04:02.400Z,51.07
2018-02-19T17:06:31.561Z,49.93
2018-02-19T17:09:01.397Z,59.97
2018-02-19T17:11:30.514Z,62.43
2018-02-19T17:13:59.631Z,62.47
2018-02-19T17:16:28.794Z,59.20
2018-02-19T17:18:57.891Z,59.73
2018-02-19T17:21:27.030Z,54.50
2018-02-19T17:23:56.907Z,52.67
2018-02-19T17:26:26.161Z,50.07
2018-02-19T17:28:56.081Z,44.53
2018-02-19T17:31:25.947Z,50.80
2018-02-19T17:33:55.088Z,58.10
2018-02-19T17:36:24.961Z,58.37
2018-02-19T17:38:54.054Z,52.83
2018-02-19T17:41:23.178Z,48.90
2018-02-19T17:43:52.943Z,45.43
2018-02-19T17:46:22.091Z,56.00
2018-02-19T17:48:51.996Z,52.70
2018-02-19T17:51:21.124Z,47.33
2018-02-19T17:53:51.077Z,48.43
2018-02-19T17:56:20.171Z,58.43
2018-02-19T17:58:49.360Z,44.57
2018-02-19T18:01:18.540Z,46.93
2018-02-19T18:03:48.412Z,53.17
2018-02-19T18:06:17.517Z,53.00
2018-02-19T18:08:46.701Z,50.07
2018-02-19T18:11:15.814Z,48.10
2018-02-19T18:13:44.953Z,45.70
2018-02-19T18:16:14.791Z,58.10
2018-02-19T18:18:43.909Z,50.70
2018-02-19T18:21:14.541Z,59.60
2018-02-19T18:23:43.668Z,56.70
2018-02-19T18:26:13.592Z,54.17
2018-02-19T18:28:43.491Z,43.07
2018-02-19T18:31:12.634Z,65.83
2018-02-19T18:33:41.771Z,52.27
2018-02-19T18:36:10.892Z,50.80
2018-02-19T18:38:40.018Z,50.13
2018-02-19T18:41:09.129Z,51.37
2018-02-19T18:43:38.263Z,62.57
2018-02-19T18:46:07.389Z,82.40
2018-02-19T18:48:37.438Z,55.67
2018-02-19T18:51:06.554Z,57.00
2018-02-19T18:53:35.675Z,57.00
2018-02-19T18:56:05.532Z,64.00
2018-02-19T18:58:34.656Z,53.87
2018-02-19T19:01:03.805Z,51.87
2018-02-19T19:03:33.700Z,53.73
2018-02-19T19:06:02.802Z,59.57
2018-02-19T19:08:50.416Z,47.03
2018-02-19T19:11:19.544Z,55.70
2018-02-19T19:13:48.713Z,55.33
2018-02-19T19:16:17.829Z,58.47
2018-02-19T19:18:47.716Z,54.97
2018-02-19T19:21:16.848Z,55.50
2018-02-19T19:23:45.957Z,50.53
2018-02-19T19:26:15.116Z,60.37
2018-02-19T19:28:44.230Z,71.60
2018-02-19T19:31:14.118Z,57.20
2018-02-19T19:33:44.045Z,65.77
2018-02-19T19:36:13.166Z,63.13
2018-02-19T19:38:42.295Z,55.07
2018-02-19T19:41:11.435Z,60.17
2018-02-19T19:43:41.667Z,64.20
2018-02-19T19:46:11.579Z,56.40
2018-02-19T19:48:41.472Z,64.13
2018-02-19T19:51:10.616Z,50.93
2018-02-19T19:53:39.735Z,57.50
2018-02-19T19:56:09.815Z,59.87
2018-02-19T19:58:39.909Z,56.87
2018-02-19T20:01:09.026Z,54.13
2018-02-19T20:03:38.935Z,53.60
2018-02-19T20:06:08.805Z,54.90
2018-02-19T20:08:38.002Z,54.63
2018-02-19T20:11:07.139Z,55.77
2018-02-19T20:13:37.036Z,57.73
2018-02-19T20:16:06.167Z,62.20
2018-02-19T20:18:35.339Z,60.77
2018-02-19T20:21:04.401Z,58.10
2018-02-19T20:23:33.533Z,60.07
2018-02-19T20:26:02.671Z,56.70
2018-02-19T20:28:31.822Z,68.40
2018-02-19T20:31:01.716Z,57.10
2018-02-19T20:33:30.839Z,60.67
2018-02-19T20:35:59.972Z,60.07
2018-02-19T20:38:29.095Z,56.50
2018-02-19T20:40:58.245Z,56.67
2018-02-19T20:43:28.139Z,56.87
2018-02-19T20:45:57.251Z,64.73
2018-02-19T20:48:27.139Z,63.07
2018-02-19T20:50:56.281Z,62.30
2018-02-19T20:53:25.366Z,59.70
2018-02-19T20:55:54.513Z,54.20
2018-02-19T20:58:23.651Z,57.90
2018-02-19T21:00:53.542Z,54.60
2018-02-19T21:03:22.694Z,54.70
2018-02-19T21:05:52.574Z,56.33
2018-02-19T21:08:22.483Z,57.60
2018-02-19T21:10:51.641Z,62.53
2018-02-19T21:13:20.728Z,59.30
2018-02-19T21:15:49.885Z,65.47
2018-02-19T21:18:19.772Z,66.20
2018-02-19T21:20:48.902Z,62.73
2018-02-19T21:23:18.771Z,61.00
2018-02-19T21:25:47.899Z,63.17
2018-02-19T21:28:17.774Z,61.30
2018-02-19T21:30:46.931Z,68.53
2018-02-19T21:33:16.785Z,68.87
2018-02-19T21:35:45.990Z,71.80
2018-02-19T21:38:15.102Z,69.80
2018-02-19T21:40:44.228Z,57.47
2018-02-19T21:43:14.126Z,59.93
2018-02-19T21:45:43.249Z,64.43
2018-02-19T21:48:12.365Z,61.00
2018-02-19T21:50:41.530Z,56.10
2018-02-19T21:53:11.405Z,63.37
2018-02-19T21:55:40.535Z,60.90
2018-02-19T21:58:10.394Z,68.17
2018-02-19T22:00:39.487Z,60.00
2018-02-19T22:03:08.646Z,63.53
2018-02-19T22:05:38.521Z,61.00
2018-02-19T22:08:07.652Z,67.80
2018-02-19T22:10:37.696Z,69.93
2018-02-19T22:13:07.588Z,61.80
2018-02-19T22:15:37.509Z,59.77
2018-02-19T22:18:07.395Z,59.90
2018-02-19T22:20:36.494Z,59.00
2018-02-19T22:23:05.631Z,58.30
2018-02-19T22:25:34.761Z,58.03
2018-02-19T22:28:04.110Z,56.83
2018-02-19T22:30:33.668Z,58.07
2018-02-19T22:33:02.835Z,55.47
2018-02-19T22:35:32.062Z,62.03
2018-02-19T22:38:01.162Z,55.10
2018-02-19T22:40:31.019Z,52.70
2018-02-19T22:43:00.871Z,60.07
2018-02-19T22:45:29.990Z,59.60
2018-02-19T22:47:59.831Z,56.97
2018-02-19T22:50:29.745Z,52.93
2018-02-19T22:52:58.843Z,54.03
2018-02-19T22:55:27.962Z,51.97
2018-02-19T22:57:57.841Z,59.30
2018-02-19T23:00:26.955Z,59.83
2018-02-19T23:02:56.808Z,56.60
2018-02-19T23:05:25.928Z,58.47
2018-02-19T23:07:55.075Z,58.87
2018-02-19T23:10:24.164Z,57.70
2018-02-19T23:12:53.280Z,60.93
2018-02-19T23:15:23.246Z,57.77
2018-02-19T23:17:52.368Z,53.80
2018-02-19T23:20:23.357Z,55.70
2018-02-19T23:22:52.480Z,60.97
2018-02-19T23:25:21.569Z,54.77
2018-02-19T23:27:50.673Z,56.50
2018-02-19T23:30:20.282Z,59.67
2018-02-19T23:32:49.422Z,56.50
2018-02-19T23:35:18.509Z,54.20
2018-02-19T23:37:47.642Z,53.90
2018-02-19T23:40:16.762Z,58.00
2018-02-19T23:42:45.855Z,54.40
2018-02-19T23:45:14.965Z,52.33
2018-02-19T23:47:44.055Z,55.00
2018-02-19T23:50:13.171Z,50.97
2018-02-19T23:52:43.027Z,56.13
2018-02-19T23:55:12.172Z,59.03
2018-02-19T23:57:41.258Z,56.53
